Time;durP1;ratioP1;P1;durP2;ratioP2;P2;SDS_P1;SDS_P2;PMS_P1;PMS_P2;Temp;Humidity;BMP_temperature;BMP_pressure;BME280_temperature;BME280_humidity;BME280_pressure;Samples;Min_cycle;Max_cycle;Signal;HPM_P1;HPM_P2
2022/04/21 00:00:58;;;;;;;14.00;3.70;;;10.10;97.30;;;;;;5031701;28;20045;-60
2022/04/21 00:03:25;;;;;;;10.90;3.75;;;10.10;97.60;;;;;;5030613;28;20046;-59
2022/04/21 00:05:52;;;;;;;14.65;4.45;;;10.10;97.70;;;;;;5005593;28;20052;-58
2022/04/21 00:08:20;;;;;;;8.02;4.00;;;10.10;97.90;;;;;;5030654;28;20149;-58
2022/04/21 00:10:47;;;;;;;8.90;3.75;;;10.00;98.00;;;;;;5029659;28;20061;-59
2022/04/21 00:13:14;;;;;;;12.30;4.78;;;10.00;98.10;;;;;;5029085;28;20547;-59
2022/04/21 00:15:40;;;;;;;15.38;4.60;;;10.00;98.30;;;;;;5015538;28;20516;-59
2022/04/21 00:18:07;;;;;;;10.88;3.47;;;10.00;98.40;;;;;;5031749;28;20081;-57
2022/04/21 00:20:34;;;;;;;11.35;4.03;;;9.90;98.50;;;;;;5031121;28;20089;-58
2022/04/21 00:25:46;;;;;;;12.43;4.40;;;9.80;98.60;;;;;;5031271;28;20547;-59
2022/04/21 00:28:13;;;;;;;11.05;4.47;;;9.80;98.80;;;;;;5031179;28;20464;-59
2022/04/21 00:30:40;;;;;;;11.60;3.78;;;9.80;98.90;;;;;;5031291;28;20129;-58
2022/04/21 00:33:07;;;;;;;8.15;3.63;;;9.80;99.10;;;;;;5029160;28;20099;-58
2022/04/21 00:35:34;;;;;;;6.22;3.70;;;9.80;99.10;;;;;;4996963;28;20084;-59
2022/04/21 00:38:00;;;;;;;11.38;4.38;;;9.80;99.10;;;;;;5027446;28;20096;-58
2022/04/21 00:40:29;;;;;;;13.00;4.35;;;9.80;99.10;;;;;;5030765;28;20104;-59
2022/04/21 00:42:56;;;;;;;9.02;4.00;;;9.80;99.20;;;;;;5030025;28;20045;-59
2022/04/21 00:45:23;;;;;;;11.45;4.18;;;9.80;99.30;;;;;;5031108;28;20115;-59
2022/04/21 00:47:51;;;;;;;17.98;3.67;;;9.70;99.40;;;;;;4682168;28;10000828;-59
2022/04/21 00:50:19;;;;;;;14.27;3.88;;;9.70;99.70;;;;;;5027771;28;20081;-59
2022/04/21 00:52:46;;;;;;;15.18;4.50;;;9.70;99.60;;;;;;5030602;28;20069;-60
2022/04/21 00:55:13;;;;;;;7.32;3.53;;;9.70;99.70;;;;;;5030783;28;20049;-60
2022/04/21 00:57:41;;;;;;;9.60;4.00;;;9.60;99.70;;;;;;5030482;28;20089;-61
2022/04/21 01:00:09;;;;;;;11.38;4.35;;;9.50;99.90;;;;;;5030714;28;20069;-60
2022/04/21 01:02:52;;;;;;;10.85;3.58;;;9.50;99.90;;;;;;5030613;28;20068;-60
2022/04/21 01:05:28;;;;;;;9.57;3.80;;;9.50;99.90;;;;;;5029145;28;20079;-60
2022/04/21 01:08:04;;;;;;;13.82;4.22;;;9.50;99.90;;;;;;5030531;28;20041;-59
2022/04/21 01:10:34;;;;;;;9.35;3.85;;;9.40;99.90;;;;;;5030186;28;20038;-59
2022/04/21 01:13:04;;;;;;;13.90;4.20;;;9.40;99.90;;;;;;5028270;28;20467;-59
2022/04/21 01:15:30;;;;;;;14.68;4.55;;;9.40;99.90;;;;;;5029752;28;20418;-60
2022/04/21 01:17:57;;;;;;;18.35;5.47;;;9.40;99.90;;;;;;5031053;28;20417;-59
2022/04/21 01:20:25;;;;;;;9.63;4.28;;;9.20;99.90;;;;;;5034587;28;20551;-59
2022/04/21 01:22:52;;;;;;;10.00;4.65;;;9.10;99.90;;;;;;5032802;28;20064;-59
2022/04/21 01:25:20;;;;;;;18.65;5.80;;;9.10;99.90;;;;;;5016936;28;20056;-59
2022/04/21 01:27:49;;;;;;;11.57;3.83;;;9.00;99.90;;;;;;5034223;28;20392;-57
2022/04/21 01:30:16;;;;;;;15.30;4.50;;;9.00;99.90;;;;;;5032714;28;20111;-57
2022/04/21 01:32:43;;;;;;;16.90;4.85;;;9.10;99.90;;;;;;5033125;28;20045;-58
2022/04/21 01:35:11;;;;;;;15.60;4.93;;;9.00;99.90;;;;;;5031944;28;20136;-58
2022/04/21 01:43:08;;;;;;;13.20;3.83;;;8.90;99.90;;;;;;5026992;28;20046;-58
2022/04/21 01:45:35;;;;;;;7.82;4.38;;;8.90;99.90;;;;;;5032476;28;20497;-58
2022/04/21 01:48:02;;;;;;;10.32;4.32;;;8.90;99.90;;;;;;5032263;28;20073;-59
2022/04/21 01:50:29;;;;;;;13.27;5.65;;;8.90;99.90;;;;;;5031570;28;20049;-61
2022/04/21 01:52:58;;;;;;;16.33;5.10;;;8.80;99.90;;;;;;5031464;28;20073;-58
2022/04/21 01:55:25;;;;;;;15.65;4.93;;;8.80;99.90;;;;;;5032547;28;20096;-59
2022/04/21 01:57:52;;;;;;;9.75;4.63;;;8.80;99.90;;;;;;5033821;28;20049;-59
2022/04/21 02:00:20;;;;;;;11.40;4.18;;;8.70;99.90;;;;;;5032462;28;20049;-57
2022/04/21 02:02:47;;;;;;;9.80;4.38;;;8.60;99.90;;;;;;5032668;28;20061;-59
2022/04/21 02:05:14;;;;;;;11.95;5.28;;;8.70;99.90;;;;;;5032263;28;20054;-59
2022/04/21 02:07:44;;;;;;;10.05;5.50;;;8.70;99.90;;;;;;5030705;28;20049;-58
2022/04/21 02:10:12;;;;;;;13.80;4.90;;;8.60;99.90;;;;;;5021941;28;20048;-57
2022/04/21 02:12:40;;;;;;;16.17;5.10;;;8.60;99.90;;;;;;5033415;28;20083;-56
2022/04/21 02:15:08;;;;;;;20.33;5.32;;;8.50;99.90;;;;;;5020329;28;20045;-57
2022/04/21 02:17:35;;;;;;;10.05;4.55;;;8.50;99.90;;;;;;5028228;28;20485;-59
2022/04/21 02:20:07;;;;;;;17.05;5.25;;;8.50;99.90;;;;;;5032499;28;20452;-59
2022/04/21 02:22:35;;;;;;;11.93;4.65;;;8.60;99.90;;;;;;5022614;28;20045;-58
2022/04/21 02:25:06;;;;;;;14.23;5.07;;;8.60;99.90;;;;;;5016179;28;20052;-58
2022/04/21 02:27:34;;;;;;;7.15;4.18;;;8.60;99.90;;;;;;5025263;28;20103;-58
2022/04/21 02:30:01;;;;;;;14.70;5.32;;;8.60;99.90;;;;;;5033001;28;20053;-60
2022/04/21 02:32:28;;;;;;;14.48;5.32;;;8.60;99.90;;;;;;5033562;28;20442;-59
2022/04/21 02:34:55;;;;;;;15.13;5.70;;;8.60;99.90;;;;;;5033435;28;20045;-60
2022/04/21 02:37:22;;;;;;;14.70;4.82;;;8.50;99.90;;;;;;5032399;28;20084;-58
2022/04/21 02:39:49;;;;;;;15.05;4.65;;;8.50;99.90;;;;;;5033579;28;20080;-59
2022/04/21 02:42:22;;;;;;;10.95;3.97;;;8.40;99.90;;;;;;5032331;28;20478;-59
2022/04/21 02:44:49;;;;;;;15.35;6.28;;;8.30;99.90;;;;;;5016871;28;20100;-59
2022/04/21 02:47:17;;;;;;;16.63;6.18;;;8.30;99.90;;;;;;5028639;28;20046;-59
2022/04/21 02:49:47;;;;;;;11.50;5.18;;;8.30;99.90;;;;;;5013812;28;20056;-59
2022/04/21 02:52:14;;;;;;;12.05;4.85;;;8.30;99.90;;;;;;5027862;28;20496;-59
2022/04/21 02:57:27;;;;;;;15.85;5.38;;;8.40;99.90;;;;;;5032791;28;20052;-58
2022/04/21 02:59:55;;;;;;;14.45;5.30;;;8.40;99.90;;;;;;5033078;28;20084;-58
2022/04/21 03:02:22;;;;;;;12.07;5.25;;;8.40;99.90;;;;;;5032454;28;20135;-59
2022/04/21 03:04:51;;;;;;;16.40;6.45;;;8.40;99.90;;;;;;5030835;28;20053;-58
2022/04/21 03:07:21;;;;;;;9.23;4.43;;;8.40;99.90;;;;;;5032756;28;20068;-59
2022/04/21 03:09:48;;;;;;;14.02;5.63;;;8.40;99.90;;;;;;5032895;28;20108;-58
2022/04/21 03:12:15;;;;;;;12.90;5.32;;;8.30;99.90;;;;;;5032303;28;20084;-57
2022/04/21 03:14:42;;;;;;;11.00;4.10;;;8.30;99.90;;;;;;5028867;28;20076;-59
2022/04/21 03:17:10;;;;;;;13.70;5.18;;;8.30;99.90;;;;;;5032197;28;20076;-59
2022/04/21 03:19:37;;;;;;;17.20;5.40;;;8.30;99.90;;;;;;5031305;28;20046;-59
2022/04/21 03:24:49;;;;;;;12.85;5.53;;;8.30;99.90;;;;;;5023408;28;20088;-58
2022/04/21 03:27:16;;;;;;;14.45;5.40;;;8.20;99.90;;;;;;5030643;28;20477;-59
2022/04/21 03:29:43;;;;;;;15.23;5.38;;;8.10;99.90;;;;;;5032358;28;20045;-59
2022/04/21 03:32:13;;;;;;;9.35;4.97;;;8.00;99.90;;;;;;5031927;28;20060;-60
2022/04/21 03:34:43;;;;;;;13.43;4.47;;;7.90;99.90;;;;;;5031544;28;20137;-60
2022/04/21 03:37:13;;;;;;;14.50;4.85;;;7.80;99.90;;;;;;5030694;28;20049;-59
2022/04/21 03:39:40;;;;;;;16.92;5.70;;;7.80;99.90;;;;;;5028722;28;20520;-59
2022/04/21 03:42:08;;;;;;;14.50;5.47;;;7.80;99.90;;;;;;5030495;28;20539;-59
2022/04/21 03:44:41;;;;;;;14.48;5.65;;;7.90;99.90;;;;;;5028417;28;20045;-60
2022/04/21 03:47:09;;;;;;;9.90;5.18;;;7.80;99.90;;;;;;5032117;28;20128;-59
2022/04/21 03:49:36;;;;;;;11.32;5.20;;;7.80;99.90;;;;;;5032388;28;20568;-60
2022/04/21 03:52:03;;;;;;;13.75;5.47;;;7.90;99.90;;;;;;5031799;28;20061;-58
2022/04/21 03:54:30;;;;;;;14.32;5.95;;;7.90;99.90;;;;;;5030350;28;20398;-59
2022/04/21 03:56:57;;;;;;;13.48;5.60;;;7.90;99.90;;;;;;5030519;28;20045;-59
2022/04/21 03:59:24;;;;;;;18.73;5.90;;;7.90;99.90;;;;;;5031463;28;20049;-56
2022/04/21 04:01:51;;;;;;;14.90;6.38;;;7.90;99.90;;;;;;5028011;28;20088;-59
2022/04/21 04:04:18;;;;;;;11.27;5.30;;;7.90;99.90;;;;;;5025657;28;20057;-57
2022/04/21 04:12:16;;;;;;;14.70;5.70;;;7.60;99.90;;;;;;5031495;28;20053;-59
2022/04/21 04:14:43;;;;;;;12.40;5.72;;;7.50;99.90;;;;;;5027763;28;20061;-58
2022/04/21 04:17:10;;;;;;;12.20;5.10;;;7.40;99.90;;;;;;5031752;28;20080;-58
2022/04/21 04:19:37;;;;;;;15.18;5.72;;;7.40;99.90;;;;;;5031423;28;20041;-58
2022/04/21 04:22:04;;;;;;;12.45;6.32;;;7.40;99.90;;;;;;5031220;28;20081;-59
2022/04/21 04:24:31;;;;;;;15.32;6.13;;;7.40;99.90;;;;;;5031598;28;20049;-60
2022/04/21 04:26:58;;;;;;;16.58;6.28;;;7.40;99.90;;;;;;5031096;28;20053;-58
2022/04/21 04:29:25;;;;;;;16.17;5.68;;;7.40;99.90;;;;;;5031382;28;20091;-59
2022/04/21 04:31:52;;;;;;;10.73;5.80;;;7.50;99.90;;;;;;5030649;28;20140;-59
2022/04/21 04:34:21;;;;;;;15.55;6.20;;;7.40;99.90;;;;;;5031297;28;20041;-59
2022/04/21 04:36:48;;;;;;;14.50;5.78;;;7.50;99.90;;;;;;5030635;28;20045;-58
2022/04/21 04:39:15;;;;;;;10.00;5.65;;;7.50;99.90;;;;;;5029710;28;20531;-57
2022/04/21 04:44:27;;;;;;;11.55;6.00;;;7.40;99.90;;;;;;5020282;28;20046;-58
2022/04/21 04:46:55;;;;;;;14.43;6.10;;;7.30;99.90;;;;;;5013333;28;20096;-58
2022/04/21 04:49:22;;;;;;;17.73;8.57;;;7.30;99.90;;;;;;5029764;28;20045;-59
2022/04/21 04:51:51;;;;;;;15.07;6.18;;;7.30;99.90;;;;;;5030824;28;20452;-58
2022/04/21 04:54:19;;;;;;;15.65;6.28;;;7.30;99.90;;;;;;5032694;28;20092;-58
2022/04/21 04:56:46;;;;;;;10.52;5.82;;;7.30;99.90;;;;;;5034402;28;20049;-56
2022/04/21 04:59:13;;;;;;;13.25;5.28;;;7.20;99.90;;;;;;5034936;28;20049;-59
2022/04/21 05:01:41;;;;;;;16.63;6.72;;;7.20;99.90;;;;;;5033728;28;20103;-59
2022/04/21 05:04:28;;;;;;;14.25;6.15;;;7.10;99.90;;;;;;5034091;28;20049;-59
2022/04/21 05:06:57;;;;;;;13.52;5.40;;;7.10;99.90;;;;;;5034565;28;20100;-59
2022/04/21 05:09:24;;;;;;;21.88;7.28;;;7.00;99.90;;;;;;5034993;28;20057;-59
2022/04/21 05:11:52;;;;;;;22.13;7.75;;;6.90;99.90;;;;;;5033135;28;20067;-60
2022/04/21 05:14:20;;;;;;;17.13;6.13;;;6.90;99.90;;;;;;5020785;28;20462;-58
2022/04/21 05:16:47;;;;;;;23.02;7.32;;;6.90;99.90;;;;;;5025868;28;20046;-58
2022/04/21 05:19:16;;;;;;;23.15;8.10;;;6.90;99.90;;;;;;5017395;28;20046;-58
2022/04/21 05:21:43;;;;;;;19.15;6.53;;;6.90;99.90;;;;;;5034551;28;20050;-58
2022/04/21 05:24:12;;;;;;;13.27;5.53;;;6.80;99.90;;;;;;5016999;28;20045;-59
2022/04/21 05:26:40;;;;;;;17.75;7.15;;;6.90;99.90;;;;;;5033738;28;20046;-59
2022/04/21 05:31:58;;;;;;;15.13;6.00;;;7.00;99.90;;;;;;5032957;28;20138;-59
2022/04/21 05:34:27;;;;;;;12.25;6.72;;;7.00;99.90;;;;;;5032477;28;20425;-59
2022/04/21 05:36:54;;;;;;;12.40;7.07;;;7.10;99.90;;;;;;5026537;28;20191;-58
2022/04/21 05:39:21;;;;;;;16.10;6.43;;;7.20;99.90;;;;;;4993316;28;20132;-59
2022/04/21 05:41:48;;;;;;;27.17;7.13;;;7.20;99.90;;;;;;5029887;28;20088;-58
2022/04/21 05:44:16;;;;;;;15.02;6.70;;;7.20;99.90;;;;;;5026477;28;20045;-59
2022/04/21 05:46:43;;;;;;;13.38;6.47;;;7.30;99.90;;;;;;5024010;28;20057;-58
2022/04/21 05:49:10;;;;;;;12.45;6.88;;;7.30;99.90;;;;;;5029479;28;20077;-59
2022/04/21 05:51:37;;;;;;;15.93;6.93;;;7.30;99.90;;;;;;5026067;28;20453;-59
2022/04/21 05:54:05;;;;;;;20.10;6.88;;;7.30;99.90;;;;;;5033797;28;20124;-59
2022/04/21 05:56:33;;;;;;;16.30;6.40;;;7.30;99.90;;;;;;5033738;28;20042;-60
2022/04/21 05:59:00;;;;;;;22.20;7.10;;;7.40;99.90;;;;;;5033658;28;20104;-60
2022/04/21 06:01:26;;;;;;;12.63;6.72;;;7.40;99.90;;;;;;5032772;28;20054;-58
2022/04/21 06:03:57;;;;;;;15.80;6.57;;;7.40;99.90;;;;;;5031623;28;20053;-59
2022/04/21 06:06:24;;;;;;;23.50;6.78;;;7.40;99.90;;;;;;5033623;28;20042;-59
2022/04/21 06:08:51;;;;;;;13.27;6.88;;;7.40;99.90;;;;;;5032474;28;20057;-60
2022/04/21 06:11:18;;;;;;;19.73;8.05;;;7.40;99.90;;;;;;5033400;28;20488;-59
2022/04/21 06:13:44;;;;;;;18.90;7.60;;;7.50;99.90;;;;;;5065122;28;20084;-55
2022/04/21 06:16:11;;;;;;;27.95;7.93;;;7.60;99.90;;;;;;5015688;28;20068;-61
2022/04/21 06:18:38;;;;;;;25.17;8.27;;;7.60;99.90;;;;;;5032063;28;20046;-58
2022/04/21 06:21:06;;;;;;;15.88;8.88;;;7.70;99.90;;;;;;5022487;28;20057;-59
2022/04/21 06:23:33;;;;;;;22.45;9.05;;;7.90;99.90;;;;;;5021315;28;20077;-56
2022/04/21 06:26:03;;;;;;;22.48;7.88;;;7.90;99.90;;;;;;5032166;28;20049;-59
2022/04/21 06:28:30;;;;;;;22.30;9.32;;;8.00;99.90;;;;;;5032626;28;20037;-59
2022/04/21 06:30:56;;;;;;;18.85;8.98;;;8.10;99.90;;;;;;5032290;28;20041;-58
2022/04/21 06:33:26;;;;;;;19.48;9.25;;;8.10;99.90;;;;;;5029294;28;20131;-58
2022/04/21 06:35:52;;;;;;;22.33;9.63;;;8.30;99.90;;;;;;5030672;28;20072;-56
2022/04/21 06:38:19;;;;;;;19.98;9.80;;;8.30;99.90;;;;;;5029622;28;20473;-58
2022/04/21 06:40:46;;;;;;;28.45;11.45;;;8.40;99.90;;;;;;5029820;28;20049;-58
2022/04/21 06:48:44;;;;;;;18.30;9.77;;;8.60;99.90;;;;;;5030854;28;20045;-58
2022/04/21 06:51:11;;;;;;;25.02;11.90;;;8.70;99.90;;;;;;5031440;28;20052;-58
2022/04/21 06:53:39;;;;;;;27.60;11.00;;;8.70;99.90;;;;;;5030650;28;20046;-57
2022/04/21 06:56:06;;;;;;;24.80;11.98;;;8.80;99.90;;;;;;5030486;28;20085;-57
2022/04/21 06:58:32;;;;;;;19.25;11.50;;;8.90;99.90;;;;;;5031682;28;20335;-58
2022/04/21 07:00:59;;;;;;;24.70;12.50;;;9.00;99.90;;;;;;5031426;28;20081;-58
2022/04/21 07:03:27;;;;;;;34.72;15.55;;;9.10;99.90;;;;;;5014422;28;20049;-58
2022/04/21 07:05:55;;;;;;;37.92;17.10;;;9.20;99.90;;;;;;5030265;28;20049;-59
2022/04/21 07:08:22;;;;;;;47.88;20.10;;;9.40;99.90;;;;;;5028636;28;20107;-58
2022/04/21 07:10:49;;;;;;;32.17;18.35;;;9.50;99.90;;;;;;5030609;28;20069;-56
2022/04/21 07:13:16;;;;;;;37.50;19.83;;;9.70;99.90;;;;;;5028946;28;20125;-57
2022/04/21 07:15:43;;;;;;;45.15;21.52;;;9.80;99.90;;;;;;5028771;28;20081;-58
2022/04/21 07:18:11;;;;;;;42.45;20.02;;;9.90;99.90;;;;;;5028550;28;20057;-58
2022/04/21 07:20:38;;;;;;;36.42;21.20;;;10.00;99.90;;;;;;5030255;28;20556;-58
2022/04/21 07:23:05;;;;;;;37.63;20.27;;;10.10;99.90;;;;;;5031139;28;20057;-59
2022/04/21 07:25:33;;;;;;;36.50;19.20;;;10.20;99.90;;;;;;5029354;28;20049;-59
2022/04/21 07:28:11;;;;;;;35.88;20.42;;;10.30;99.90;;;;;;5030690;28;20042;-59
2022/04/21 07:30:46;;;;;;;41.08;19.63;;;10.40;99.90;;;;;;5028981;28;20053;-58
2022/04/21 07:33:15;;;;;;;38.13;19.15;;;10.50;99.90;;;;;;5030897;28;20456;-59
2022/04/21 07:35:43;;;;;;;34.70;19.15;;;10.60;99.90;;;;;;5029501;28;20095;-55
2022/04/21 07:38:11;;;;;;;32.17;17.25;;;10.70;99.90;;;;;;5027583;28;20049;-57
2022/04/21 07:40:38;;;;;;;32.75;19.45;;;10.80;99.90;;;;;;5012617;28;20041;-60
2022/04/21 07:43:10;;;;;;;35.88;17.65;;;10.90;99.90;;;;;;5018475;28;20056;-60
2022/04/21 07:45:41;;;;;;;33.08;18.88;;;11.00;99.90;;;;;;5029433;28;20045;-59
2022/04/21 07:48:07;;;;;;;38.42;19.45;;;11.00;99.90;;;;;;5030217;28;20715;-59
2022/04/21 07:50:35;;;;;;;33.88;18.50;;;11.20;99.90;;;;;;5029661;28;20046;-58
2022/04/21 07:53:20;;;;;;;31.50;17.90;;;11.20;99.90;;;;;;5022600;28;20446;-59
2022/04/21 07:55:50;;;;;;;35.90;18.02;;;11.30;99.90;;;;;;5013575;28;20049;-59
2022/04/21 07:58:17;;;;;;;33.72;18.17;;;11.40;99.90;;;;;;5013295;28;20099;-60
2022/04/21 08:00:44;;;;;;;40.35;17.67;;;11.50;99.90;;;;;;5031189;28;20111;-59
2022/04/21 08:03:11;;;;;;;31.50;16.58;;;11.60;99.90;;;;;;5029583;28;20080;-59
2022/04/21 08:05:38;;;;;;;28.20;15.63;;;11.70;99.90;;;;;;5031482;28;20072;-58
2022/04/21 08:08:08;;;;;;;26.85;15.45;;;11.80;99.90;;;;;;5029063;28;20517;-60
2022/04/21 08:10:34;;;;;;;25.92;15.35;;;11.90;99.90;;;;;;5029142;28;20042;-59
2022/04/21 08:13:02;;;;;;;31.15;16.23;;;12.00;99.90;;;;;;5028289;28;20049;-59
2022/04/21 08:15:33;;;;;;;26.85;14.70;;;12.10;99.90;;;;;;5034814;28;20053;-60
2022/04/21 08:18:04;;;;;;;30.00;15.43;;;12.10;99.90;;;;;;5029385;28;20037;-61
2022/04/21 08:20:32;;;;;;;26.45;14.13;;;12.30;99.90;;;;;;5019466;28;20053;-60
2022/04/21 08:22:59;;;;;;;21.95;14.32;;;12.30;99.90;;;;;;5026406;28;20049;-59
2022/04/21 08:34:22;;;;;;;30.10;14.23;;;12.60;99.90;;;;;;5039769;28;20044;-61
2022/04/21 08:36:52;;;;;;;26.42;13.05;;;12.70;99.90;;;;;;5040773;28;20076;-60
2022/04/21 08:39:20;;;;;;;20.20;12.93;;;12.70;99.90;;;;;;5032436;28;20060;-60
2022/04/21 08:41:49;;;;;;;24.08;13.00;;;12.80;99.90;;;;;;5049590;28;20076;-61
2022/04/21 08:44:17;;;;;;;28.80;13.13;;;12.80;99.90;;;;;;5027614;28;20054;-60
2022/04/21 08:46:46;;;;;;;24.58;12.85;;;12.90;99.90;;;;;;5049648;28;20065;-61
2022/04/21 08:49:14;;;;;;;23.33;12.35;;;13.00;99.90;;;;;;5046080;28;20061;-60
2022/04/21 08:51:41;;;;;;;20.55;11.98;;;13.10;99.90;;;;;;5048677;28;20046;-61
2022/04/21 08:54:08;;;;;;;22.42;12.25;;;13.20;99.90;;;;;;5013245;28;20076;-62
2022/04/21 08:56:35;;;;;;;26.05;11.57;;;13.30;99.90;;;;;;5030214;28;20054;-61
2022/04/21 08:59:02;;;;;;;25.17;11.63;;;13.40;99.90;;;;;;5048909;28;20050;-61
2022/04/21 09:01:28;;;;;;;15.82;10.85;;;13.60;99.90;;;;;;5050226;28;20492;-60
2022/04/21 09:03:55;;;;;;;24.65;11.00;;;13.60;99.90;;;;;;5049259;28;20029;-60
2022/04/21 09:06:23;;;;;;;15.98;10.23;;;13.70;99.90;;;;;;5042728;28;20045;-59
2022/04/21 09:09:17;;;;;;;18.60;9.20;;;13.70;99.70;;;;;;5050075;28;20045;-61
2022/04/21 09:11:45;;;;;;;27.75;10.98;;;13.80;98.50;;;;;;5039914;28;20046;-60
2022/04/21 09:14:16;;;;;;;21.45;11.05;;;13.90;99.70;;;;;;5037464;28;20065;-61
2022/04/21 09:16:43;;;;;;;16.67;9.02;;;14.10;99.20;;;;;;5033374;28;20037;-61
2022/04/21 09:19:10;;;;;;;14.55;8.68;;;14.20;99.00;;;;;;5050368;28;20080;-60
2022/04/21 09:21:38;;;;;;;23.48;8.90;;;14.30;98.80;;;;;;5050718;28;20045;-61
2022/04/21 09:24:24;;;;;;;15.52;8.85;;;14.40;98.60;;;;;;5050077;28;20053;-61
2022/04/21 09:26:51;;;;;;;15.85;9.48;;;14.40;97.20;;;;;;5042768;28;20056;-61
2022/04/21 09:29:30;;;;;;;22.92;9.75;;;14.50;98.30;;;;;;5051196;28;20056;-62
2022/04/21 09:31:58;;;;;;;18.50;9.32;;;14.60;97.90;;;;;;5048363;28;20075;-62
2022/04/21 09:34:36;;;;;;;18.10;9.75;;;14.60;97.90;;;;;;5040640;28;20034;-62
2022/04/21 09:37:06;;;;;;;21.20;9.63;;;14.60;97.50;;;;;;5037348;28;20049;-61
2022/04/21 09:39:40;;;;;;;18.02;8.80;;;14.70;98.20;;;;;;5030892;28;20060;-61
2022/04/21 09:42:07;;;;;;;22.67;8.80;;;15.00;97.40;;;;;;5043663;28;20057;-61
2022/04/21 09:47:21;;;;;;;19.42;9.23;;;15.50;96.70;;;;;;5037426;28;20060;-61
2022/04/21 09:49:48;;;;;;;18.67;9.57;;;15.60;97.20;;;;;;5034949;28;20050;-61
2022/04/21 09:52:27;;;;;;;21.05;9.35;;;15.70;96.50;;;;;;5053005;28;20046;-61
2022/04/21 09:54:54;;;;;;;16.55;10.35;;;16.00;96.10;;;;;;5037471;28;20064;-61
2022/04/21 09:57:31;;;;;;;24.45;8.88;;;16.30;96.90;;;;;;5051836;28;20030;-61
2022/04/21 09:59:58;;;;;;;15.02;8.15;;;16.40;95.50;;;;;;5051583;28;20045;-61
2022/04/21 10:02:26;;;;;;;14.27;7.40;;;16.50;95.70;;;;;;5047607;28;20086;-61
2022/04/21 10:04:54;;;;;;;19.30;7.97;;;16.40;95.10;;;;;;5031171;28;20101;-61
2022/04/21 10:07:21;;;;;;;14.95;7.60;;;16.50;95.10;;;;;;5035390;28;20049;-62
2022/04/21 10:09:48;;;;;;;16.45;8.65;;;16.70;95.30;;;;;;5019988;28;20049;-61
2022/04/21 10:12:14;;;;;;;19.55;9.00;;;16.90;94.80;;;;;;5052335;28;20060;-61
2022/04/21 10:14:41;;;;;;;15.02;8.32;;;16.90;94.30;;;;;;5020944;28;20081;-60
2022/04/21 10:17:10;;;;;;;17.60;8.77;;;17.10;94.80;;;;;;5052460;28;20056;-61
2022/04/21 10:19:36;;;;;;;22.48;9.70;;;17.30;93.50;;;;;;5035941;28;20056;-60
2022/04/21 10:22:06;;;;;;;14.38;8.27;;;17.40;94.40;;;;;;5051846;28;20041;-60
2022/04/21 10:24:34;;;;;;;14.32;7.10;;;17.40;94.50;;;;;;5037316;28;20057;-60
2022/04/21 10:27:02;;;;;;;27.17;7.53;;;17.20;93.20;;;;;;5051931;28;20088;-60
2022/04/21 10:29:29;;;;;;;13.00;7.03;;;17.00;92.70;;;;;;5053763;28;20049;-61
2022/04/21 10:32:05;;;;;;;16.10;7.18;;;16.70;93.00;;;;;;5052415;28;20045;-61
2022/04/21 10:34:40;;;;;;;13.57;6.65;;;16.40;91.90;;;;;;5053258;28;20064;-61
2022/04/21 10:37:14;;;;;;;17.85;6.85;;;16.40;93.60;;;;;;5053757;28;20068;-60
2022/04/21 10:40:00;;;;;;;15.65;7.38;;;16.40;93.60;;;;;;5036758;28;20034;-60
2022/04/21 10:42:27;;;;;;;10.70;6.00;;;16.40;92.90;;;;;;5053526;28;20038;-60
2022/04/21 10:44:54;;;;;;;11.27;5.80;;;16.40;93.60;;;;;;5053831;28;20072;-60
2022/04/21 10:47:31;;;;;;;18.13;6.63;;;16.30;93.50;;;;;;5052065;28;20045;-60
2022/04/21 10:50:07;;;;;;;19.25;7.30;;;16.40;93.30;;;;;;5053157;28;20057;-61
2022/04/21 10:58:47;;;;;;;9.38;6.78;;;16.30;93.40;;;;;;5052421;28;20052;-61
2022/04/21 11:01:19;;;;;;;10.85;5.75;;;16.20;93.00;;;;;;5043893;28;20050;-61
2022/04/21 11:04:04;;;;;;;11.70;6.63;;;16.30;93.10;;;;;;5049070;28;20117;-60
2022/04/21 11:06:42;;;;;;;11.80;6.07;;;16.30;93.30;;;;;;5052053;28;20065;-61
2022/04/21 11:09:09;;;;;;;7.38;4.95;;;16.40;91.80;;;;;;5034911;28;20045;-60
2022/04/21 11:11:49;;;;;;;22.27;6.90;;;16.50;93.30;;;;;;5023180;28;20053;-60
2022/04/21 11:14:29;;;;;;;9.50;5.28;;;16.50;92.10;;;;;;5049813;28;20048;-60
2022/04/21 11:16:57;;;;;;;24.02;7.07;;;16.40;91.50;;;;;;5035694;28;20053;-60
2022/04/21 11:19:30;;;;;;;12.48;5.82;;;16.40;91.80;;;;;;5052553;28;20076;-60
2022/04/21 11:22:04;;;;;;;12.07;5.38;;;16.40;91.50;;;;;;5051502;28;20077;-61
2022/04/21 11:24:56;;;;;;;20.67;5.60;;;16.40;92.20;;;;;;5036410;28;20055;-61
2022/04/21 11:27:22;;;;;;;12.07;5.20;;;16.30;90.80;;;;;;5051100;28;20038;-60
2022/04/21 11:29:49;;;;;;;9.23;5.15;;;16.30;91.10;;;;;;5046045;28;20058;-61
2022/04/21 11:32:17;;;;;;;8.90;5.43;;;16.20;92.00;;;;;;5052468;28;20045;-61
2022/04/21 11:35:10;;;;;;;13.95;4.90;;;16.30;92.30;;;;;;5052555;28;20049;-62
2022/04/21 11:37:51;;;;;;;18.83;5.00;;;16.30;90.50;;;;;;5033611;28;20468;-61
2022/04/21 11:40:28;;;;;;;13.52;5.18;;;16.40;91.10;;;;;;5049775;28;20076;-61
2022/04/21 11:42:56;;;;;;;11.13;5.90;;;16.40;91.70;;;;;;5051389;28;20076;-61
2022/04/21 11:45:27;;;;;;;10.30;5.53;;;16.50;91.10;;;;;;5066668;28;20064;-61
2022/04/21 11:47:54;;;;;;;8.95;5.25;;;16.60;90.80;;;;;;5035854;28;20040;-60
2022/04/21 11:50:25;;;;;;;22.58;5.47;;;16.50;91.50;;;;;;5052314;28;20041;-60
2022/04/21 11:52:53;;;;;;;12.57;4.95;;;16.40;91.00;;;;;;5025628;28;20068;-60
2022/04/21 11:55:23;;;;;;;16.05;4.80;;;16.40;91.20;;;;;;5051775;28;20076;-61
2022/04/21 11:57:49;;;;;;;8.02;4.57;;;16.50;90.90;;;;;;5051745;28;20045;-61
2022/04/21 12:06:27;;;;;;;11.13;6.05;;;16.50;91.00;;;;;;5049979;28;20072;-61
2022/04/21 12:08:47;;;;;;;7.63;3.70;;;16.70;90.70;;;;;;5029229;28;20060;-61
2022/04/21 12:11:17;;;;;;;15.93;4.10;;;16.70;90.10;;;;;;5024262;28;20086;-61
2022/04/21 12:13:44;;;;;;;9.15;3.00;;;16.70;90.10;;;;;;5052514;28;20026;-61
2022/04/21 12:16:35;;;;;;;10.43;4.40;;;16.70;90.20;;;;;;5051353;28;20045;-61
2022/04/21 12:19:28;;;;;;;7.97;3.45;;;16.90;87.10;;;;;;5031927;28;20113;-60
2022/04/21 12:21:57;;;;;;;10.20;3.60;;;16.90;86.80;;;;;;5031790;28;20042;-60
2022/04/21 12:24:32;;;;;;;7.93;3.25;;;17.00;88.40;;;;;;5030937;28;20333;-61
2022/04/21 12:27:00;;;;;;;10.27;3.33;;;17.10;86.90;;;;;;5050808;28;20048;-60
2022/04/21 12:29:29;;;;;;;13.20;3.00;;;17.10;89.20;;;;;;5051297;28;20053;-60
2022/04/21 12:31:59;;;;;;;7.85;3.63;;;17.10;87.90;;;;;;5052075;28;20068;-60
2022/04/21 12:34:30;;;;;;;10.63;3.40;;;17.10;87.80;;;;;;5051698;28;20050;-61
2022/04/21 12:36:59;;;;;;;7.60;4.43;;;17.20;87.80;;;;;;5051018;28;20053;-61
2022/04/21 12:39:28;;;;;;;8.43;3.67;;;17.20;87.00;;;;;;5019244;28;20088;-60
2022/04/21 12:42:15;;;;;;;6.57;2.65;;;17.20;85.60;;;;;;5050033;28;20096;-61
2022/04/21 12:44:43;;;;;;;6.82;2.97;;;17.20;88.20;;;;;;5050126;28;20046;-61
2022/04/21 12:47:18;;;;;;;10.40;3.15;;;17.30;87.80;;;;;;5050964;28;20053;-60
2022/04/21 12:50:03;;;;;;;6.38;2.80;;;17.50;84.20;;;;;;5032339;28;20117;-60
2022/04/21 12:52:41;;;;;;;5.68;3.53;;;17.50;82.00;;;;;;5048991;28;20041;-60
2022/04/21 12:55:23;;;;;;;6.55;2.88;;;17.50;84.30;;;;;;5052087;28;20060;-61
2022/04/21 12:58:05;;;;;;;6.72;2.97;;;17.40;82.30;;;;;;5050770;28;20032;-61
2022/04/21 13:00:33;;;;;;;9.18;2.97;;;17.50;81.70;;;;;;5051181;28;20045;-61
2022/04/21 13:03:00;;;;;;;15.55;5.90;;;17.50;83.70;;;;;;5034070;28;20049;-62
2022/04/21 13:05:28;;;;;;;9.95;3.50;;;17.50;84.50;;;;;;5051890;28;20057;-61
2022/04/21 13:07:54;;;;;;;5.95;3.22;;;17.50;85.10;;;;;;5050971;28;20038;-61
2022/04/21 13:10:21;;;;;;;6.07;3.00;;;17.50;84.10;;;;;;5041685;28;20053;-61
2022/04/21 13:12:48;;;;;;;5.15;2.53;;;17.50;84.80;;;;;;5046329;28;20041;-61
2022/04/21 13:15:16;;;;;;;8.50;2.75;;;17.50;82.50;;;;;;5053057;28;20046;-60
2022/04/21 13:17:43;;;;;;;7.30;2.83;;;17.60;81.90;;;;;;5054263;28;20094;-61
2022/04/21 13:21:52;;;;;;;;;;;17.60;84.30;;;;;;5055295;28;20045;-61
2022/04/21 13:23:03;;;;;;;9.23;2.58;;;17.70;80.90;;;;;;5055407;28;19921;-60
2022/04/21 13:25:30;;;;;;;4.13;2.20;;;17.70;84.10;;;;;;5051967;28;20042;-61
2022/04/21 13:27:57;;;;;;;9.25;3.40;;;17.70;82.40;;;;;;5045577;28;20046;-60
2022/04/21 13:30:24;;;;;;;11.05;3.20;;;17.70;82.80;;;;;;5054729;28;20033;-61
2022/04/21 13:35:37;;;;;;;17.95;2.92;;;17.60;82.50;;;;;;5054879;28;20050;-61
2022/04/21 13:38:04;;;;;;;11.63;3.22;;;17.60;82.80;;;;;;5020908;28;20057;-60
2022/04/21 13:40:31;;;;;;;7.15;3.47;;;17.70;82.40;;;;;;5055208;28;20045;-60
2022/04/21 13:42:57;;;;;;;8.20;2.47;;;17.70;81.80;;;;;;5047555;28;20045;-61
2022/04/21 13:45:44;;;;;;;5.75;3.25;;;17.80;82.30;;;;;;5055267;28;20076;-61
2022/04/21 13:48:11;;;;;;;5.93;2.60;;;17.90;78.40;;;;;;5087630;28;20080;-61
2022/04/21 13:50:38;;;;;;;7.88;2.50;;;17.90;79.40;;;;;;5054907;28;20045;-60